»·PEaware :: AAL1888 KPHX-KRNO

AAL1888 :: KPHX-KRNO

FLIGHT INFORMATION

Flight Status: Arrived
Operator:
American Airlines
More flights by this operator :: More flights under this callsign
Pilot: Merv A. (1555)
Aircraft: AIRBUS A319
(A319)
More flights by this aircraft type
Origin: KPHX Phoenix Sky Harbor Intl
United States
Destination: KRNO Reno/Tahoe Intl
United States
More flights between these airports :: More routes between these airports
Route: +ZEPER1 SISIE DOVEE BTY KENNO KENNO2
File this flight plan on PilotEdge
Remarks: RMK / SIMBRIEF
Altitude:
(Current/Filed)
36,000ft
Speed:
(Current/Filed)
455kts
Departed: 06-Feb-20 03:57 PM
Arrived: 06-Feb-20 05:28 PM
Distance/Time
Traveled:
522nm/1:31
Distance/Time
To Go:
Arrived

Flight Plot

Page will automatically refresh every two minutes.

Flight plan parsing failed; only flown route is shown


Map Options




Map Legend


Flown Route
Filed Route
Departure Airport
Arrival Airport
Navaid (VOR, NDB)
Fix

Horizontal Profiles

Position Reports

Time Latitude Longitude Heading Altitude Ground
Speed
06-Feb-20 15:07 33.436816 -111.997290 90 1149ft 0kts
06-Feb-20 15:08 33.436816 -111.997290 90 1149ft 0kts
06-Feb-20 15:09 33.436816 -111.997290 90 1149ft 0kts
06-Feb-20 15:11 33.436816 -111.997290 90 1149ft 0kts
06-Feb-20 15:12 33.436816 -111.997290 90 1149ft 0kts
06-Feb-20 15:13 33.436816 -111.997290 90 1149ft 0kts
06-Feb-20 15:14 33.436816 -111.997290 90 1149ft 0kts
06-Feb-20 15:15 33.436816 -111.997290 90 1149ft 0kts
06-Feb-20 15:16 33.436816 -111.997290 90 1149ft 0kts
06-Feb-20 15:17 33.436816 -111.997290 90 1149ft 0kts
06-Feb-20 15:18 33.436816 -111.997290 90 1149ft 0kts
06-Feb-20 15:19 33.436816 -111.997290 90 1149ft 0kts
06-Feb-20 15:20 33.436816 -111.997290 90 1149ft 0kts
06-Feb-20 15:21 33.436816 -111.997290 90 1149ft 0kts
06-Feb-20 15:22 33.436816 -111.997290 90 1149ft 0kts
06-Feb-20 15:23 33.436816 -111.997290 90 1149ft 0kts
06-Feb-20 15:24 33.436816 -111.997290 90 1149ft 0kts
06-Feb-20 15:25 33.436816 -111.997290 90 1149ft 0kts
06-Feb-20 15:26 33.436816 -111.997290 90 1149ft 0kts
06-Feb-20 15:27 33.436816 -111.997290 90 1149ft 0kts
06-Feb-20 15:28 33.436816 -111.997290 90 1149ft 0kts
06-Feb-20 15:28 33.436816 -111.997290 90 1149ft 0kts
06-Feb-20 15:30 33.436816 -111.997290 90 1149ft 0kts
06-Feb-20 15:31 33.436816 -111.997290 90 1149ft 0kts
06-Feb-20 15:31 33.436816 -111.997290 90 1149ft 0kts
06-Feb-20 15:32 33.436816 -111.997290 90 1149ft 0kts
06-Feb-20 15:33 33.436816 -111.997290 90 1149ft 0kts
06-Feb-20 15:34 33.436816 -111.997290 90 1149ft 0kts
06-Feb-20 15:35 33.436816 -111.997290 90 1149ft 0kts
06-Feb-20 15:37 33.436816 -111.997290 90 1149ft 0kts
06-Feb-20 15:37 33.436816 -111.997290 90 1149ft 0kts
06-Feb-20 15:38 33.436816 -111.997290 90 1149ft 0kts
06-Feb-20 15:39 33.436816 -111.997290 90 1149ft 0kts
06-Feb-20 15:40 33.436816 -111.997290 90 1149ft 0kts
06-Feb-20 15:41 33.436816 -111.997290 90 1149ft 0kts
06-Feb-20 15:42 33.436816 -111.997290 90 1149ft 0kts
06-Feb-20 15:43 33.436816 -111.997290 90 1149ft 0kts
06-Feb-20 15:44 33.436816 -111.997290 90 1149ft 0kts
06-Feb-20 15:45 33.436816 -111.997290 90 1149ft 0kts
06-Feb-20 15:46 33.436586 -111.997801 358 1149ft 2kts
06-Feb-20 15:47 33.436576 -111.997801 356 1149ft 0kts
06-Feb-20 15:48 33.436578 -111.997801 356 1149ft 0kts
06-Feb-20 15:49 33.437030 -111.997810 0 1149ft 4kts
06-Feb-20 15:50 33.438600 -111.997801 4 1149ft 4kts
06-Feb-20 15:51 33.438992 -111.996321 90 1149ft 8kts
06-Feb-20 15:52 33.439077 -111.992610 59 1149ft 8kts
06-Feb-20 15:53 33.439764 -111.991269 64 1149ft 0kts
06-Feb-20 15:54 33.439803 -111.991194 54 1149ft 3kts
06-Feb-20 15:55 33.440830 -111.991545 272 1149ft 3kts
06-Feb-20 15:56 33.440834 -112.013837 268 1216ft 172kts
06-Feb-20 15:57 33.441552 -112.076559 271 3532ft 239kts
06-Feb-20 15:58 33.445931 -112.156046 289 7410ft 245kts
06-Feb-20 15:59 33.499462 -112.194214 355 11042ft 242kts
06-Feb-20 16:00 33.572123 -112.199441 353 12797ft 306kts
06-Feb-20 16:01 33.660853 -112.216569 344 15257ft 327kts
06-Feb-20 16:02 33.750079 -112.244621 343 17812ft 337kts
06-Feb-20 16:03 33.841954 -112.274157 343 20168ft 347kts
06-Feb-20 16:04 33.937094 -112.304895 343 22326ft 358kts
06-Feb-20 16:05 34.031728 -112.346239 329 24289ft 367kts
06-Feb-20 16:06 34.113776 -112.421943 322 26081ft 376kts
06-Feb-20 16:07 34.195311 -112.503093 321 27671ft 384kts
06-Feb-20 16:08 34.278246 -112.586469 321 29108ft 391kts
06-Feb-20 16:09 34.362676 -112.671732 321 30377ft 399kts
06-Feb-20 16:10 34.448286 -112.758441 321 31487ft 406kts
06-Feb-20 16:11 34.534489 -112.846031 321 32951ft 401kts
06-Feb-20 16:12 34.617703 -112.934739 320 34266ft 397kts
06-Feb-20 16:13 34.700021 -113.024776 320 35329ft 397kts
06-Feb-20 16:14 34.782638 -113.115198 320 36061ft 399kts
06-Feb-20 16:15 34.864846 -113.205367 320 36082ft 397kts
06-Feb-20 16:16 34.946516 -113.295921 317 36079ft 398kts
06-Feb-20 16:17 35.006471 -113.410955 298 36083ft 411kts
06-Feb-20 16:18 35.049537 -113.540304 297 36087ft 411kts
06-Feb-20 16:19 35.091680 -113.669580 297 36092ft 412kts
06-Feb-20 16:20 35.133753 -113.800032 297 36095ft 412kts
06-Feb-20 16:21 35.175501 -113.930381 297 36097ft 412kts
06-Feb-20 16:22 35.217168 -114.061082 297 36097ft 413kts
06-Feb-20 16:23 35.258724 -114.192121 297 36091ft 412kts
06-Feb-20 16:24 35.300223 -114.323550 297 36081ft 413kts
06-Feb-20 16:25 35.341406 -114.454567 297 36075ft 413kts
06-Feb-20 16:26 35.382343 -114.585399 297 36071ft 412kts
06-Feb-20 16:27 35.423435 -114.717285 296 36068ft 413kts
06-Feb-20 16:28 35.478008 -114.838049 313 36070ft 401kts
06-Feb-20 16:29 35.549809 -114.942933 314 36072ft 400kts
06-Feb-20 16:30 35.623097 -115.046278 315 36073ft 400kts
06-Feb-20 16:31 35.696025 -115.149111 315 36074ft 400kts
06-Feb-20 16:32 35.769565 -115.253075 314 36076ft 400kts
06-Feb-20 16:33 35.842406 -115.356371 314 36077ft 400kts
06-Feb-20 16:34 35.915145 -115.459843 314 36076ft 400kts
06-Feb-20 16:35 35.988243 -115.564150 314 36069ft 400kts
06-Feb-20 16:36 36.060651 -115.667805 314 36063ft 399kts
06-Feb-20 16:37 36.133013 -115.771704 314 36068ft 400kts
06-Feb-20 16:38 36.205640 -115.876318 314 36067ft 400kts
06-Feb-20 16:39 36.278268 -115.981262 314 36061ft 400kts
06-Feb-20 16:40 36.350261 -116.085613 314 36062ft 400kts
06-Feb-20 16:41 36.422783 -116.191071 314 36064ft 399kts
06-Feb-20 16:42 36.494638 -116.295881 314 36066ft 399kts
06-Feb-20 16:43 36.566595 -116.401173 314 36069ft 399kts
06-Feb-20 16:44 36.638156 -116.506223 314 36078ft 398kts
06-Feb-20 16:45 36.709716 -116.611599 314 36088ft 398kts
06-Feb-20 16:46 36.781555 -116.716490 316 36093ft 397kts
06-Feb-20 16:47 36.860245 -116.812723 320 36100ft 395kts
06-Feb-20 16:48 36.941348 -116.904951 320 36107ft 394kts
06-Feb-20 16:49 37.022728 -116.996955 320 36115ft 395kts
06-Feb-20 16:50 37.104473 -117.089394 320 36123ft 395kts
06-Feb-20 16:51 37.185892 -117.181666 320 36126ft 395kts
06-Feb-20 16:52 37.267401 -117.274297 320 36131ft 395kts
06-Feb-20 16:53 37.350016 -117.365013 322 36135ft 396kts
06-Feb-20 16:54 37.433764 -117.454779 322 36161ft 395kts
06-Feb-20 16:55 37.521058 -117.538709 328 36163ft 394kts
06-Feb-20 16:56 37.613224 -117.613204 329 36165ft 394kts
06-Feb-20 16:57 37.706108 -117.687266 329 36149ft 393kts
06-Feb-20 16:58 37.798824 -117.761080 329 36150ft 394kts
06-Feb-20 16:59 37.891474 -117.834953 329 36151ft 394kts
06-Feb-20 17:00 37.983999 -117.908912 329 36152ft 394kts
06-Feb-20 17:01 38.076766 -117.983279 329 36154ft 394kts
06-Feb-20 17:02 38.169470 -118.057817 329 36157ft 394kts
06-Feb-20 17:03 38.262019 -118.132457 329 36159ft 394kts
06-Feb-20 17:04 38.354444 -118.207215 328 36212ft 394kts
06-Feb-20 17:05 38.441594 -118.291960 319 35143ft 394kts
06-Feb-20 17:06 38.521220 -118.388388 318 33447ft 395kts
06-Feb-20 17:07 38.600849 -118.486262 317 30791ft 389kts
06-Feb-20 17:08 38.676447 -118.579846 317 28840ft 369kts
06-Feb-20 17:09 38.748474 -118.669486 317 26968ft 352kts
06-Feb-20 17:10 38.817241 -118.755178 317 25208ft 337kts
06-Feb-20 17:11 38.883226 -118.837472 317 23519ft 326kts
06-Feb-20 17:12 38.947753 -118.918124 317 21903ft 322kts
06-Feb-20 17:13 39.012585 -118.999337 317 19582ft 337kts
06-Feb-20 17:14 39.057354 -119.106338 281 16978ft 362kts
06-Feb-20 17:15 39.068101 -119.231096 279 16110ft 330kts
06-Feb-20 17:16 39.076756 -119.347377 279 14272ft 319kts
06-Feb-20 17:17 39.086312 -119.450709 295 13534ft 263kts
06-Feb-20 17:18 39.120404 -119.529256 303 12554ft 250kts
06-Feb-20 17:20 39.155609 -119.606823 303 11170ft 251kts
06-Feb-20 17:21 39.191702 -119.683419 303 10190ft 244kts
06-Feb-20 17:22 39.227029 -119.753588 316 10078ft 220kts
06-Feb-20 17:23 39.282184 -119.766124 356 9212ft 200kts
06-Feb-20 17:24 39.334939 -119.767601 357 8197ft 185kts
06-Feb-20 17:25 39.386502 -119.770536 356 6899ft 180kts
06-Feb-20 17:26 39.435401 -119.769655 358 5816ft 152kts
06-Feb-20 17:27 39.474732 -119.769449 359 4720ft 139kts
06-Feb-20 17:28 39.501564 -119.769268 355 4429ft 32kts
06-Feb-20 17:29 39.503832 -119.771379 316 4429ft 5kts
06-Feb-20 17:30 39.505341 -119.771497 359 4429ft 7kts
06-Feb-20 17:31 39.506137 -119.772741 346 4429ft 3kts
06-Feb-20 17:32 39.506536 -119.772766 359 4429ft 0kts
06-Feb-20 17:33 39.506536 -119.772766 359 4429ft 0kts
06-Feb-20 17:34 39.506536 -119.772766 359 4429ft 0kts
06-Feb-20 17:35 39.506536 -119.772766 359 4429ft 0kts

Navigation Log

Ident Type
Flight plan parsing failed, navigation log unavailable